Time;durP1;ratioP1;P1;durP2;ratioP2;P2;SDS_P1;SDS_P2;PMS_P1;PMS_P2;Temp;Humidity;BMP_temperature;BMP_pressure;BME280_temperature;BME280_humidity;BME280_pressure;Samples;Min_cycle;Max_cycle;Signal;HPM_P1;HPM_P2
2023/06/24 00:04:51;;;;;;;;;25.75;24.75;;;;;;;;6487161;39;8906;-54
2023/06/24 00:10:54;;;;;;;;;28.50;24.50;;;;;;;;6488601;39;8947;-53
2023/06/24 00:16:57;;;;;;;;;30.75;27.50;;;;;;;;6487732;39;8937;-56
2023/06/24 00:22:59;;;;;;;;;32.50;30.25;;;;;;;;6487320;47;8927;-57
2023/06/24 00:29:02;;;;;;;;;25.75;25.25;;;;;;;;6488720;31;9009;-55
2023/06/24 00:35:05;;;;;;;;;25.67;25.67;;;;;;;;6487048;39;8888;-57
2023/06/24 00:41:07;;;;;;;;;28.00;26.00;;;;;;;;6487251;39;8894;-55
2023/06/24 00:47:12;;;;;;;;;31.00;27.50;;;;;;;;6487743;39;8964;-54
2023/06/24 00:53:24;;;;;;;;;36.00;33.00;;;;;;;;6489123;39;9624;-54
2023/06/24 00:59:29;;;;;;;;;38.25;33.25;;;;;;;;6490214;39;8992;-53
2023/06/24 01:05:35;;;;;;;;;36.25;33.00;;;;;;;;6489948;39;8859;-56
2023/06/24 01:11:38;;;;;;;;;35.00;30.75;;;;;;;;6491259;31;8984;-56
2023/06/24 01:17:54;;;;;;;;;33.40;30.20;;;;;;;;6307607;31;10000712;-58
2023/06/24 01:24:00;;;;;;;;;27.75;26.50;;;;;;;;6489149;31;8828;-55
2023/06/24 01:30:24;;;;;;;;;26.00;25.25;;;;;;;;6490615;31;8930;-55
2023/06/24 01:36:30;;;;;;;;;21.75;21.75;;;;;;;;6488186;31;8877;-55
2023/06/24 01:42:38;;;;;;;;;20.00;19.50;;;;;;;;6487741;39;8934;-55
2023/06/24 01:48:44;;;;;;;;;26.50;25.50;;;;;;;;6488336;46;9015;-53
2023/06/24 01:54:49;;;;;;;;;27.50;24.75;;;;;;;;6488922;39;8874;-57
2023/06/24 02:00:52;;;;;;;;;25.75;24.75;;;;;;;;6488613;31;9044;-56
2023/06/24 02:07:01;;;;;;;;;26.75;22.50;;;;;;;;6488995;39;8906;-56
2023/06/24 02:13:05;;;;;;;;;30.00;26.25;;;;;;;;6487900;39;9639;-56
2023/06/24 02:19:09;;;;;;;;;25.75;24.00;;;;;;;;6488667;39;10236;-55
2023/06/24 02:25:12;;;;;;;;;26.00;26.00;;;;;;;;6487751;46;8936;-55
2023/06/24 02:31:17;;;;;;;;;24.50;22.75;;;;;;;;6489660;39;8910;-54
2023/06/24 02:37:20;;;;;;;;;34.25;32.00;;;;;;;;6489400;39;8896;-52
2023/06/24 02:43:22;;;;;;;;;27.25;27.00;;;;;;;;6489147;39;8945;-54
2023/06/24 02:49:26;;;;;;;;;27.67;26.00;;;;;;;;6488624;39;8908;-54
2023/06/24 02:55:31;;;;;;;;;27.25;27.25;;;;;;;;6486706;39;10098;-55
2023/06/24 03:01:39;;;;;;;;;25.00;24.25;;;;;;;;6487982;46;8998;-55
2023/06/24 03:07:42;;;;;;;;;26.00;24.00;;;;;;;;6487388;39;9529;-55
2023/06/24 03:13:49;;;;;;;;;22.75;22.75;;;;;;;;6487291;46;9027;-54
2023/06/24 03:19:57;;;;;;;;;24.00;21.25;;;;;;;;6487291;46;8853;-54
2023/06/24 03:26:00;;;;;;;;;24.50;23.00;;;;;;;;6487979;39;8914;-57
2023/06/24 03:32:03;;;;;;;;;27.00;24.00;;;;;;;;6488589;39;8860;-57
2023/06/24 03:38:07;;;;;;;;;27.25;27.25;;;;;;;;6488855;39;9307;-55
2023/06/24 03:44:10;;;;;;;;;25.75;24.50;;;;;;;;6487063;39;8935;-57
2023/06/24 03:50:15;;;;;;;;;23.75;23.25;;;;;;;;6487119;39;8914;-56
2023/06/24 03:56:18;;;;;;;;;26.75;24.75;;;;;;;;6487115;39;9658;-57
2023/06/24 04:02:21;;;;;;;;;28.75;27.00;;;;;;;;6487749;39;9683;-55
2023/06/24 04:08:30;;;;;;;;;27.00;26.00;;;;;;;;6488408;31;8907;-56
2023/06/24 04:14:34;;;;;;;;;28.00;27.00;;;;;;;;6487201;47;8906;-54
